createdAt,value
2017-06-09T00:00:29.807Z,1006.25
2017-06-09T00:02:31.656Z,1006.27
2017-06-09T00:04:33.466Z,1006.26
2017-06-09T00:06:35.404Z,1006.27
2017-06-09T00:08:37.242Z,1006.29
2017-06-09T00:10:39.043Z,1006.29
2017-06-09T00:12:40.861Z,1006.25
2017-06-09T00:14:42.823Z,1006.24
2017-06-09T00:16:44.591Z,1006.23
2017-06-09T00:18:46.510Z,1006.21
2017-06-09T00:20:48.502Z,1006.19
2017-06-09T00:22:50.678Z,1006.16
2017-06-09T00:24:52.506Z,1006.15
2017-06-09T00:26:54.397Z,1006.14
2017-06-09T00:28:56.329Z,1006.12
2017-06-09T00:30:58.109Z,1006.09
2017-06-09T00:33:00.174Z,1006.01
2017-06-09T00:35:02.112Z,1006.00
2017-06-09T00:37:03.959Z,1006.02
2017-06-09T00:39:05.767Z,1006.03
2017-06-09T00:41:07.642Z,1005.97
2017-06-09T00:43:09.503Z,1005.92
2017-06-09T00:45:11.452Z,1005.85
2017-06-09T00:47:13.275Z,1005.85
2017-06-09T00:49:15.099Z,1005.86
2017-06-09T00:51:16.907Z,1005.94
2017-06-09T00:53:18.686Z,1005.91
2017-06-09T00:55:20.710Z,1005.88
2017-06-09T00:57:22.775Z,1005.82
2017-06-09T00:59:24.598Z,1005.93
2017-06-09T01:01:26.520Z,1006.13
2017-06-09T01:03:28.383Z,1006.20
2017-06-09T01:05:30.318Z,1006.24
2017-06-09T01:07:32.263Z,1006.23
2017-06-09T01:09:34.158Z,1006.25
2017-06-09T01:11:36.093Z,1006.21
2017-06-09T01:13:37.957Z,1006.15
2017-06-09T01:15:39.823Z,1006.09
2017-06-09T01:17:41.730Z,1006.03
2017-06-09T01:19:43.689Z,1006.09
2017-06-09T01:21:45.567Z,1006.02
2017-06-09T01:23:47.320Z,1005.98
2017-06-09T01:25:49.089Z,1005.97
2017-06-09T01:27:50.984Z,1005.99
2017-06-09T01:29:52.846Z,1005.97
2017-06-09T01:31:54.572Z,1005.96
2017-06-09T01:33:56.408Z,1005.99
2017-06-09T01:35:58.445Z,1005.97
2017-06-09T01:38:00.305Z,1005.96
2017-06-09T01:40:02.215Z,1005.87
2017-06-09T01:42:04.180Z,1005.74
2017-06-09T01:44:06.098Z,1005.75
2017-06-09T01:46:07.942Z,1005.74
2017-06-09T01:48:09.730Z,1005.79
2017-06-09T01:50:11.859Z,1005.83
2017-06-09T01:52:13.688Z,1005.84
2017-06-09T01:54:15.594Z,1005.85
2017-06-09T01:56:17.532Z,1005.85
2017-06-09T01:58:19.468Z,1005.89
2017-06-09T02:00:21.276Z,1005.84
2017-06-09T02:02:23.116Z,1005.83
2017-06-09T02:04:25.307Z,1005.79
2017-06-09T02:06:27.254Z,1005.77
2017-06-09T02:08:29.423Z,1005.74
2017-06-09T02:10:31.473Z,1005.68
2017-06-09T02:12:33.251Z,1005.69
2017-06-09T02:14:35.663Z,1005.65
2017-06-09T02:16:37.607Z,1005.64
2017-06-09T02:18:39.487Z,1005.58
2017-06-09T02:20:41.318Z,1005.54
2017-06-09T02:22:43.185Z,1005.55
2017-06-09T02:24:44.946Z,1005.60
2017-06-09T02:26:46.892Z,1005.50
2017-06-09T02:28:48.678Z,1005.51
2017-06-09T02:30:50.725Z,1005.52
2017-06-09T02:32:52.552Z,1005.51
2017-06-09T02:34:54.583Z,1005.53
2017-06-09T02:36:56.393Z,1005.51
2017-06-09T02:38:58.234Z,1005.54
2017-06-09T02:41:00.301Z,1005.49
2017-06-09T02:43:02.260Z,1005.49
2017-06-09T02:45:04.139Z,1005.42
2017-06-09T02:47:05.898Z,1005.47
2017-06-09T02:49:07.644Z,1005.44
2017-06-09T02:51:09.541Z,1005.43
2017-06-09T02:53:11.504Z,1005.36
2017-06-09T02:55:13.514Z,1005.34
2017-06-09T02:57:15.601Z,1005.35
2017-06-09T02:59:17.629Z,1005.39
2017-06-09T03:01:19.478Z,1005.42
2017-06-09T03:03:21.574Z,1005.37
2017-06-09T03:05:23.455Z,1005.35
2017-06-09T03:07:25.482Z,1005.34
2017-06-09T03:09:27.392Z,1005.35
2017-06-09T03:11:29.280Z,1005.34
2017-06-09T03:13:31.186Z,1005.31
2017-06-09T03:15:33.206Z,1005.32
2017-06-09T03:17:35.209Z,1005.28
2017-06-09T03:19:37.696Z,1005.26
2017-06-09T03:21:39.546Z,1005.23
2017-06-09T03:23:41.575Z,1005.25
2017-06-09T03:25:43.514Z,1005.23
2017-06-09T03:27:45.263Z,1005.16
2017-06-09T03:29:47.232Z,1005.16
2017-06-09T03:31:49.154Z,1005.18
2017-06-09T03:33:51.053Z,1005.17
2017-06-09T03:35:52.962Z,1005.14
2017-06-09T03:37:54.916Z,1005.07
2017-06-09T03:39:56.792Z,1005.05
2017-06-09T03:41:58.962Z,1005.04
2017-06-09T03:44:00.687Z,1005.04
2017-06-09T03:46:02.521Z,1005.05
2017-06-09T03:48:04.555Z,1005.08
2017-06-09T03:50:06.510Z,1005.06
2017-06-09T03:52:08.249Z,1005.07
2017-06-09T03:54:10.009Z,1005.06
2017-06-09T03:56:11.924Z,1005.08
2017-06-09T03:58:13.963Z,1005.07
2017-06-09T04:00:15.816Z,1005.08
2017-06-09T04:02:17.812Z,1005.13
2017-06-09T04:04:19.608Z,1005.08
2017-06-09T04:06:21.531Z,1005.07
2017-06-09T04:08:23.397Z,1005.06
2017-06-09T04:10:25.311Z,1005.03
2017-06-09T04:12:27.204Z,1005.03
2017-06-09T04:14:29.119Z,1005.02
2017-06-09T04:16:30.974Z,1005.00
2017-06-09T04:18:32.799Z,1005.00
2017-06-09T04:20:34.735Z,1004.94
2017-06-09T04:22:36.533Z,1004.94
2017-06-09T04:24:38.449Z,1004.91
2017-06-09T04:26:40.343Z,1004.87
2017-06-09T04:28:42.241Z,1004.92
2017-06-09T04:30:44.139Z,1004.93
2017-06-09T04:32:46.016Z,1004.94
2017-06-09T04:34:47.970Z,1004.95
2017-06-09T04:36:50.242Z,1004.92
2017-06-09T04:38:56.509Z,1004.99
2017-06-09T04:40:57.921Z,1005.00
2017-06-09T04:43:01.811Z,1005.05
2017-06-09T04:45:03.603Z,1005.10
2017-06-09T04:47:05.587Z,1005.08
2017-06-09T04:49:07.420Z,1005.06
2017-06-09T04:51:09.235Z,1005.08
2017-06-09T04:53:11.286Z,1005.12
2017-06-09T04:55:13.389Z,1005.06
2017-06-09T04:57:15.230Z,1005.17
2017-06-09T04:59:17.117Z,1005.16
2017-06-09T05:01:18.969Z,1005.12
2017-06-09T05:03:20.881Z,1005.16
2017-06-09T05:05:22.753Z,1005.10
2017-06-09T05:07:24.921Z,1005.13
2017-06-09T05:09:26.832Z,1005.10
2017-06-09T05:11:28.879Z,1005.13
2017-06-09T05:13:30.922Z,1005.11
2017-06-09T05:15:32.774Z,1005.11
2017-06-09T05:17:34.931Z,1005.06
2017-06-09T05:19:36.819Z,1005.05
2017-06-09T05:21:38.852Z,1005.02
2017-06-09T05:23:40.945Z,1004.98
2017-06-09T05:25:43.197Z,1004.91
2017-06-09T05:27:44.947Z,1004.83
2017-06-09T05:29:46.854Z,1004.82
2017-06-09T05:31:48.715Z,1004.86
2017-06-09T05:33:50.512Z,1004.80
2017-06-09T05:35:53.067Z,1004.81
2017-06-09T05:37:54.967Z,1004.89
2017-06-09T05:39:56.842Z,1004.90
2017-06-09T05:41:58.771Z,1004.93
2017-06-09T05:44:00.963Z,1004.96
2017-06-09T05:46:03.035Z,1005.00
2017-06-09T05:48:04.934Z,1005.01
2017-06-09T05:50:06.705Z,1005.00
2017-06-09T05:52:08.547Z,1005.05
2017-06-09T05:54:10.408Z,1005.10
2017-06-09T05:56:12.602Z,1005.13
2017-06-09T05:58:14.360Z,1005.05
2017-06-09T06:00:16.632Z,1005.07
2017-06-09T06:02:19.063Z,1005.13
2017-06-09T06:04:21.453Z,1005.17
2017-06-09T06:06:23.830Z,1005.24
2017-06-09T06:08:25.680Z,1005.22
2017-06-09T06:10:27.476Z,1005.25
2017-06-09T06:12:29.639Z,1005.21
2017-06-09T06:14:32.999Z,1005.21
2017-06-09T06:16:34.551Z,1005.19
2017-06-09T06:18:36.663Z,1005.21
2017-06-09T06:20:38.554Z,1005.17
2017-06-09T06:22:40.389Z,1005.13
2017-06-09T06:24:42.543Z,1005.21
2017-06-09T06:26:44.731Z,1005.17
2017-06-09T06:28:46.529Z,1005.14
2017-06-09T06:30:48.582Z,1005.21
2017-06-09T06:32:50.896Z,1005.13
2017-06-09T06:34:52.723Z,1005.08
2017-06-09T06:36:54.677Z,1005.05
2017-06-09T06:38:56.485Z,1004.90
2017-06-09T06:40:59.596Z,1004.82
2017-06-09T06:43:01.597Z,1004.79
2017-06-09T06:45:03.950Z,1004.81
2017-06-09T06:47:05.968Z,1004.76
2017-06-09T06:49:07.759Z,1004.78
2017-06-09T06:51:09.556Z,1004.84
2017-06-09T06:53:11.713Z,1004.82
2017-06-09T06:55:13.996Z,1004.84
2017-06-09T06:57:15.836Z,1004.83
2017-06-09T06:59:17.690Z,1004.87
2017-06-09T07:01:20.089Z,1004.87
2017-06-09T07:03:21.942Z,1004.93
2017-06-09T07:05:23.742Z,1004.98
2017-06-09T07:07:25.787Z,1005.04
2017-06-09T07:09:27.582Z,1005.13
2017-06-09T07:11:29.946Z,1005.28
2017-06-09T07:13:31.807Z,1005.36
2017-06-09T07:15:33.821Z,1005.38
2017-06-09T07:17:35.643Z,1005.34
2017-06-09T07:19:37.483Z,1005.25
2017-06-09T07:21:39.298Z,1005.12
2017-06-09T07:23:41.345Z,1004.94
2017-06-09T07:25:43.323Z,1004.80
2017-06-09T07:27:45.237Z,1004.82
2017-06-09T07:29:47.286Z,1004.83
2017-06-09T07:31:49.157Z,1004.82
2017-06-09T07:33:51.215Z,1004.78
2017-06-09T07:35:53.224Z,1004.73
2017-06-09T07:37:55.258Z,1004.69
2017-06-09T07:39:57.074Z,1004.74
2017-06-09T07:41:59.223Z,1004.75
2017-06-09T07:44:02.274Z,1004.66
2017-06-09T07:46:04.490Z,1004.58
2017-06-09T07:48:06.401Z,1004.58
2017-06-09T07:50:08.340Z,1004.59
2017-06-09T07:52:10.233Z,1004.60
2017-06-09T07:54:12.283Z,1004.61
2017-06-09T07:56:14.358Z,1004.58
2017-06-09T07:58:16.012Z,1004.66
2017-06-09T08:00:18.163Z,1004.78
2017-06-09T08:03:00.331Z,1004.89
2017-06-09T08:05:01.817Z,1004.94
2017-06-09T08:07:03.229Z,1004.92
2017-06-09T08:09:04.774Z,1004.95
2017-06-09T08:11:06.271Z,1005.08
2017-06-09T08:13:08.197Z,1004.96
2017-06-09T08:15:09.807Z,1004.92
2017-06-09T08:17:11.655Z,1005.01
2017-06-09T08:19:13.548Z,1005.01
2017-06-09T08:21:15.413Z,1005.05
2017-06-09T08:23:17.277Z,1005.19
2017-06-09T08:25:19.005Z,1005.16
2017-06-09T08:27:20.845Z,1005.12
2017-06-09T08:29:22.611Z,1005.08
2017-06-09T08:31:24.496Z,1005.03
2017-06-09T08:33:26.218Z,1005.11
2017-06-09T08:35:28.005Z,1005.15
2017-06-09T08:37:29.661Z,1005.07
2017-06-09T08:39:31.196Z,1005.16
2017-06-09T08:41:32.953Z,1005.28
2017-06-09T08:43:34.803Z,1005.30
2017-06-09T08:45:36.474Z,1005.28
2017-06-09T08:47:38.217Z,1005.33
2017-06-09T08:49:40.023Z,1005.38
2017-06-09T08:51:41.565Z,1005.50
2017-06-09T08:53:43.347Z,1005.42
2017-06-09T08:55:45.058Z,1005.37
2017-06-09T08:57:46.784Z,1005.55
2017-06-09T08:59:48.550Z,1005.56
2017-06-09T09:01:50.207Z,1005.54
2017-06-09T09:03:52.001Z,1005.57
2017-06-09T09:05:53.805Z,1005.58
2017-06-09T09:07:55.630Z,1005.57
2017-06-09T09:09:57.515Z,1005.65
2017-06-09T09:11:59.082Z,1005.67
2017-06-09T09:14:00.876Z,1005.73
2017-06-09T09:16:02.726Z,1005.65
2017-06-09T09:18:04.455Z,1005.48
2017-06-09T09:20:06.142Z,1005.45
2017-06-09T09:22:07.803Z,1005.53
2017-06-09T09:24:09.565Z,1005.65
2017-06-09T09:26:11.248Z,1005.65
2017-06-09T09:28:12.973Z,1005.67
2017-06-09T09:30:14.605Z,1005.75
2017-06-09T09:32:16.139Z,1005.90
2017-06-09T09:34:18.014Z,1005.93
2017-06-09T09:36:19.746Z,1005.88
2017-06-09T09:38:21.572Z,1005.78
2017-06-09T09:40:23.050Z,1005.71
2017-06-09T09:42:24.562Z,1005.79
2017-06-09T09:44:26.991Z,1005.77
2017-06-09T09:46:29.402Z,1005.76
2017-06-09T09:48:31.197Z,1005.91
2017-06-09T09:50:33.055Z,1006.02
2017-06-09T09:52:34.826Z,1006.06
2017-06-09T09:54:37.198Z,1006.16
2017-06-09T09:56:38.885Z,1006.25
2017-06-09T09:58:40.498Z,1006.31
2017-06-09T10:00:42.138Z,1006.24
2017-06-09T10:02:44.027Z,1006.23
2017-06-09T10:04:45.761Z,1006.30
2017-06-09T10:06:47.626Z,1006.41
2017-06-09T10:08:49.974Z,1006.38
2017-06-09T10:10:51.534Z,1006.11
2017-06-09T10:12:53.501Z,1006.05
2017-06-09T10:14:55.106Z,1005.99
2017-06-09T10:16:56.616Z,1006.01
2017-06-09T10:18:58.518Z,1006.01
2017-06-09T10:21:00.347Z,1006.05
2017-06-09T10:23:02.573Z,1006.09
2017-06-09T10:25:04.141Z,1006.12
2017-06-09T10:27:05.637Z,1006.17
2017-06-09T10:29:07.545Z,1006.22
2017-06-09T10:31:09.618Z,1006.27
2017-06-09T10:33:11.133Z,1006.31
2017-06-09T10:35:12.639Z,1006.41
2017-06-09T10:37:14.168Z,1006.45
2017-06-09T10:39:15.683Z,1006.33
2017-06-09T10:41:17.513Z,1006.36
2017-06-09T10:43:19.080Z,1006.37
2017-06-09T10:45:20.964Z,1006.42
2017-06-09T10:47:22.506Z,1006.46
2017-06-09T10:49:24.441Z,1006.47
2017-06-09T10:51:25.963Z,1006.49
2017-06-09T10:53:27.459Z,1006.51
2017-06-09T10:55:29.223Z,1006.54
2017-06-09T10:57:30.722Z,1006.59
2017-06-09T10:59:32.342Z,1006.71
2017-06-09T11:01:33.835Z,1006.70
2017-06-09T11:03:35.333Z,1006.77
2017-06-09T11:05:37.482Z,1006.76
2017-06-09T11:07:39.657Z,1006.76
2017-06-09T11:09:41.366Z,1006.78
2017-06-09T11:11:42.874Z,1006.80
2017-06-09T11:13:45.495Z,1006.84
2017-06-09T11:15:47.139Z,1006.84
2017-06-09T11:17:48.841Z,1006.87
2017-06-09T11:19:50.679Z,1006.81
2017-06-09T11:21:52.811Z,1006.85
2017-06-09T11:23:54.429Z,1006.85
2017-06-09T11:25:56.017Z,1006.84
2017-06-09T11:27:57.490Z,1006.88
2017-06-09T11:29:59.303Z,1006.92
2017-06-09T11:32:01.019Z,1006.89
2017-06-09T11:34:02.752Z,1006.93
2017-06-09T11:36:04.767Z,1006.90
2017-06-09T11:38:06.510Z,1006.89
2017-06-09T11:40:08.305Z,1006.92
2017-06-09T11:42:09.800Z,1006.91
2017-06-09T11:44:11.683Z,1006.88
2017-06-09T11:46:13.674Z,1006.74
2017-06-09T11:48:16.243Z,1006.71
2017-06-09T11:50:18.049Z,1006.64
2017-06-09T11:52:19.915Z,1006.64
2017-06-09T11:54:21.695Z,1006.75
2017-06-09T11:56:23.491Z,1006.74
2017-06-09T11:58:25.395Z,1006.77
2017-06-09T12:00:27.105Z,1006.78
2017-06-09T12:02:28.985Z,1006.81
2017-06-09T12:04:30.524Z,1006.82
2017-06-09T12:06:31.980Z,1006.82
2017-06-09T12:08:33.511Z,1006.88
2017-06-09T12:10:35.215Z,1006.90
2017-06-09T12:12:37.016Z,1006.92
2017-06-09T12:14:38.935Z,1006.90
2017-06-09T12:16:41.289Z,1006.93
2017-06-09T12:18:43.060Z,1006.98
2017-06-09T12:20:44.634Z,1007.06
2017-06-09T12:22:46.204Z,1007.09
2017-06-09T12:24:47.796Z,1007.12
2017-06-09T12:26:50.205Z,1007.12
2017-06-09T12:28:52.063Z,1007.12
2017-06-09T12:30:53.973Z,1007.07
2017-06-09T12:32:55.507Z,1007.01
2017-06-09T12:34:57.811Z,1007.06
2017-06-09T12:36:59.417Z,1007.01
2017-06-09T12:39:00.965Z,1007.00
2017-06-09T12:41:02.517Z,1007.02
2017-06-09T12:43:04.266Z,1007.03
2017-06-09T12:45:06.037Z,1007.06
2017-06-09T12:47:07.722Z,1007.03
2017-06-09T12:49:09.254Z,1007.05
2017-06-09T12:51:10.913Z,1007.02
2017-06-09T12:53:12.767Z,1006.96
2017-06-09T12:55:14.507Z,1006.91
2017-06-09T12:57:16.197Z,1006.94
2017-06-09T12:59:18.478Z,1006.97
2017-06-09T13:01:20.297Z,1007.01
2017-06-09T13:03:22.002Z,1007.06
2017-06-09T13:05:23.865Z,1007.02
2017-06-09T13:07:26.354Z,1007.00
2017-06-09T13:09:28.591Z,1006.98
2017-06-09T13:11:30.860Z,1007.02
2017-06-09T13:13:32.600Z,1007.18
2017-06-09T13:15:34.378Z,1007.17
2017-06-09T13:17:36.205Z,1007.06
2017-06-09T13:19:38.817Z,1007.04
2017-06-09T13:21:40.640Z,1006.96
2017-06-09T13:23:42.480Z,1007.07
2017-06-09T13:25:44.435Z,1007.06
2017-06-09T13:27:46.122Z,1007.02
2017-06-09T13:29:47.664Z,1007.08
2017-06-09T13:31:49.836Z,1007.08
2017-06-09T13:33:51.610Z,1006.99
2017-06-09T13:35:53.559Z,1007.01
2017-06-09T13:37:55.365Z,1007.00
2017-06-09T13:39:57.530Z,1006.95
2017-06-09T13:41:59.205Z,1006.88
2017-06-09T13:44:01.036Z,1006.84
2017-06-09T13:46:02.892Z,1006.79
2017-06-09T13:48:04.892Z,1006.73
2017-06-09T13:50:06.714Z,1006.88
2017-06-09T13:52:09.450Z,1007.10
2017-06-09T13:54:11.341Z,1007.25
2017-06-09T13:56:13.193Z,1007.41
2017-06-09T13:58:15.035Z,1007.45
2017-06-09T14:00:16.890Z,1007.38
2017-06-09T14:02:18.721Z,1007.39
2017-06-09T14:04:20.569Z,1007.42
2017-06-09T14:06:22.321Z,1007.46
2017-06-09T14:08:24.145Z,1007.47
2017-06-09T14:10:25.971Z,1007.53
2017-06-09T14:12:27.757Z,1007.52
2017-06-09T14:14:29.566Z,1007.48
2017-06-09T14:16:31.421Z,1007.52
2017-06-09T14:18:33.229Z,1007.52
2017-06-09T14:20:34.935Z,1007.55
2017-06-09T14:22:36.715Z,1007.54
2017-06-09T14:24:38.643Z,1007.58
2017-06-09T14:27:21.408Z,1007.62
2017-06-09T14:29:23.151Z,1007.66
2017-06-09T14:31:30.123Z,1007.67
2017-06-09T14:33:32.029Z,1007.62
2017-06-09T14:35:35.603Z,1007.63
2017-06-09T14:37:37.062Z,1007.63
2017-06-09T14:39:39.626Z,1007.68
2017-06-09T14:41:41.294Z,1007.65
2017-06-09T14:43:42.759Z,1007.62
2017-06-09T14:45:44.635Z,1007.59
2017-06-09T14:47:46.580Z,1007.59
2017-06-09T14:49:48.437Z,1007.62
2017-06-09T14:51:50.325Z,1007.64
2017-06-09T14:53:52.305Z,1007.68
2017-06-09T14:55:54.123Z,1007.66
2017-06-09T14:57:55.969Z,1007.63
2017-06-09T14:59:57.699Z,1007.79
2017-06-09T15:01:59.566Z,1007.81
2017-06-09T15:04:01.396Z,1007.82
2017-06-09T15:06:03.206Z,1007.81
2017-06-09T15:08:05.084Z,1007.84
2017-06-09T15:10:07.061Z,1007.85
2017-06-09T15:12:08.757Z,1007.96
2017-06-09T15:14:10.578Z,1007.93
2017-06-09T15:16:12.509Z,1007.96
2017-06-09T15:18:14.330Z,1007.94
2017-06-09T15:20:16.299Z,1007.92
2017-06-09T15:22:18.277Z,1007.88
2017-06-09T15:24:20.142Z,1007.96
2017-06-09T15:26:21.950Z,1008.01
2017-06-09T15:28:23.737Z,1007.98
2017-06-09T15:30:25.663Z,1008.00
2017-06-09T15:32:27.608Z,1008.05
2017-06-09T15:34:29.416Z,1008.07
2017-06-09T15:36:31.366Z,1008.06
2017-06-09T15:38:33.207Z,1008.06
2017-06-09T15:40:35.017Z,1008.09
2017-06-09T15:42:36.909Z,1008.18
2017-06-09T15:44:38.711Z,1008.16
2017-06-09T15:46:40.497Z,1008.17
2017-06-09T15:48:42.334Z,1008.24
2017-06-09T15:50:44.180Z,1008.22
2017-06-09T15:52:46.086Z,1008.28
2017-06-09T15:54:47.754Z,1008.28
2017-06-09T15:56:49.681Z,1008.30
2017-06-09T15:58:51.314Z,1008.34
2017-06-09T16:00:53.125Z,1008.38
2017-06-09T16:02:54.970Z,1008.36
2017-06-09T16:04:56.748Z,1008.38
2017-06-09T16:06:58.533Z,1008.39
2017-06-09T16:09:00.372Z,1008.39
2017-06-09T16:11:02.514Z,1008.40
2017-06-09T16:13:04.325Z,1008.46
2017-06-09T16:15:06.373Z,1008.51
2017-06-09T16:17:08.280Z,1008.48
2017-06-09T16:19:10.425Z,1008.42
2017-06-09T16:21:12.311Z,1008.44
2017-06-09T16:23:14.082Z,1008.49
2017-06-09T16:25:15.910Z,1008.44
2017-06-09T16:27:17.989Z,1008.57
2017-06-09T16:29:19.786Z,1008.50
2017-06-09T16:31:21.574Z,1008.50
2017-06-09T16:33:23.339Z,1008.47
2017-06-09T16:35:25.237Z,1008.49
2017-06-09T16:37:27.110Z,1008.54
2017-06-09T16:39:29.178Z,1008.54
2017-06-09T16:41:31.293Z,1008.57
2017-06-09T16:43:33.097Z,1008.58
2017-06-09T16:45:34.930Z,1008.55
2017-06-09T16:47:36.785Z,1008.60
2017-06-09T16:49:38.762Z,1008.61
2017-06-09T16:51:40.624Z,1008.65
2017-06-09T16:53:42.567Z,1008.67
2017-06-09T16:55:44.459Z,1008.77
2017-06-09T16:57:46.192Z,1008.81
2017-06-09T16:59:48.034Z,1008.80
2017-06-09T17:01:49.846Z,1008.77
2017-06-09T17:03:51.772Z,1008.83
2017-06-09T17:05:53.754Z,1008.91
2017-06-09T17:07:55.614Z,1008.90
2017-06-09T17:09:57.648Z,1008.95
2017-06-09T17:11:59.469Z,1008.91
2017-06-09T17:14:01.378Z,1008.92
2017-06-09T17:16:03.221Z,1008.93
2017-06-09T17:18:05.069Z,1008.97
2017-06-09T17:20:06.954Z,1008.98
2017-06-09T17:22:08.887Z,1009.03
2017-06-09T17:24:10.647Z,1009.01
2017-06-09T17:26:12.433Z,1008.98
2017-06-09T17:28:14.261Z,1008.98
2017-06-09T17:30:16.082Z,1009.01
2017-06-09T17:32:17.998Z,1009.02
2017-06-09T17:34:19.809Z,1009.03
2017-06-09T17:36:21.889Z,1009.02
2017-06-09T17:38:23.749Z,1009.08
2017-06-09T17:40:25.611Z,1009.10
2017-06-09T17:42:27.484Z,1009.11
2017-06-09T17:44:29.303Z,1009.13
2017-06-09T17:46:31.188Z,1009.20
2017-06-09T17:48:33.013Z,1009.27
2017-06-09T17:50:34.809Z,1009.28
2017-06-09T17:52:36.569Z,1009.25
2017-06-09T17:54:38.325Z,1009.27
2017-06-09T17:56:40.113Z,1009.31
2017-06-09T17:58:42.050Z,1009.35
2017-06-09T18:00:43.956Z,1009.31
2017-06-09T18:02:45.801Z,1009.38
2017-06-09T18:04:47.645Z,1009.40
2017-06-09T18:06:49.401Z,1009.42
2017-06-09T18:08:51.178Z,1009.46
2017-06-09T18:10:52.984Z,1009.46
2017-06-09T18:12:54.967Z,1009.47
2017-06-09T18:14:56.802Z,1009.48
2017-06-09T18:16:58.668Z,1009.47
2017-06-09T18:19:00.596Z,1009.55
2017-06-09T18:21:02.469Z,1009.56
2017-06-09T18:23:04.304Z,1009.55
2017-06-09T18:25:06.046Z,1009.56
2017-06-09T18:27:07.864Z,1009.61
2017-06-09T18:29:09.678Z,1009.61
2017-06-09T18:31:11.564Z,1009.62
2017-06-09T18:33:13.461Z,1009.63
2017-06-09T18:35:15.250Z,1009.69
2017-06-09T18:37:17.198Z,1009.72
2017-06-09T18:39:19.037Z,1009.74
2017-06-09T18:41:21.020Z,1009.79
2017-06-09T18:43:22.904Z,1009.80
2017-06-09T18:45:24.806Z,1009.79
2017-06-09T18:47:26.595Z,1009.87
2017-06-09T18:49:28.532Z,1009.87
2017-06-09T18:51:30.329Z,1009.90
2017-06-09T18:53:32.110Z,1009.86
2017-06-09T18:55:33.892Z,1009.85
2017-06-09T18:57:35.831Z,1009.91
2017-06-09T18:59:37.653Z,1009.94
2017-06-09T19:01:39.578Z,1009.96
2017-06-09T19:03:41.402Z,1009.98
2017-06-09T19:05:43.241Z,1010.04
2017-06-09T19:07:44.980Z,1010.08
2017-06-09T19:09:46.791Z,1010.07
2017-06-09T19:11:48.652Z,1009.99
2017-06-09T19:13:50.511Z,1009.98
2017-06-09T19:15:52.330Z,1010.00
2017-06-09T19:17:54.447Z,1010.09
2017-06-09T19:19:56.588Z,1010.17
2017-06-09T19:21:58.750Z,1010.18
2017-06-09T19:24:00.644Z,1010.20
2017-06-09T19:26:02.457Z,1010.17
2017-06-09T19:28:04.362Z,1010.10
2017-06-09T19:30:06.198Z,1010.20
2017-06-09T19:32:08.088Z,1010.21
2017-06-09T19:34:09.963Z,1010.28
2017-06-09T19:36:11.759Z,1010.32
2017-06-09T19:38:13.567Z,1010.20
2017-06-09T19:40:15.433Z,1010.27
2017-06-09T19:42:17.206Z,1010.30
2017-06-09T19:44:18.997Z,1010.43
2017-06-09T19:46:20.893Z,1010.43
2017-06-09T19:48:22.665Z,1010.44
2017-06-09T19:50:25.166Z,1010.45
2017-06-09T19:52:26.939Z,1010.50
2017-06-09T19:54:28.815Z,1010.61
2017-06-09T19:56:30.697Z,1010.62
2017-06-09T19:58:32.631Z,1010.71
2017-06-09T20:00:34.405Z,1010.66
2017-06-09T20:02:36.246Z,1010.69
2017-06-09T20:04:38.142Z,1010.69
2017-06-09T20:06:40.002Z,1010.78
2017-06-09T20:08:41.883Z,1010.84
2017-06-09T20:10:43.688Z,1010.90
2017-06-09T20:12:45.539Z,1010.95
2017-06-09T20:14:47.460Z,1010.94
2017-06-09T20:16:49.375Z,1011.02
2017-06-09T20:18:51.520Z,1011.01
2017-06-09T20:20:53.276Z,1011.01
2017-06-09T20:22:55.147Z,1011.02
2017-06-09T20:24:56.922Z,1011.01
2017-06-09T20:26:58.831Z,1011.06
2017-06-09T20:29:00.729Z,1011.11
2017-06-09T20:31:02.648Z,1011.10
2017-06-09T20:33:04.656Z,1011.09
2017-06-09T20:35:06.674Z,1011.08
2017-06-09T20:37:08.376Z,1011.13
2017-06-09T20:39:10.240Z,1011.15
2017-06-09T20:41:11.909Z,1011.17
2017-06-09T20:43:14.000Z,1011.14
2017-06-09T20:45:16.019Z,1011.20
2017-06-09T20:47:17.892Z,1011.21
2017-06-09T20:49:19.779Z,1011.21
2017-06-09T20:51:21.780Z,1011.25
2017-06-09T20:53:24.381Z,1011.25
2017-06-09T20:55:26.588Z,1011.25
2017-06-09T20:57:28.350Z,1011.32
2017-06-09T20:59:30.129Z,1011.31
2017-06-09T21:01:31.977Z,1011.31
2017-06-09T21:03:33.741Z,1011.32
2017-06-09T21:05:35.685Z,1011.30
2017-06-09T21:07:37.519Z,1011.33
2017-06-09T21:09:39.340Z,1011.37
2017-06-09T21:11:41.316Z,1011.35
2017-06-09T21:13:43.933Z,1011.40
2017-06-09T21:15:46.379Z,1011.48
2017-06-09T21:17:48.136Z,1011.49
2017-06-09T21:19:50.268Z,1011.54
2017-06-09T21:21:52.344Z,1011.57
2017-06-09T21:23:54.059Z,1011.62
2017-06-09T21:25:55.927Z,1011.65
2017-06-09T21:27:57.875Z,1011.69
2017-06-09T21:29:59.568Z,1011.68
2017-06-09T21:32:01.698Z,1011.73
2017-06-09T21:34:04.921Z,1011.75
2017-06-09T21:36:06.933Z,1011.77
2017-06-09T21:38:08.849Z,1011.81
2017-06-09T21:40:10.683Z,1011.79
2017-06-09T21:42:12.538Z,1011.82
2017-06-09T21:44:14.651Z,1011.85
2017-06-09T21:46:17.785Z,1011.84
2017-06-09T21:49:04.994Z,1011.85
2017-06-09T21:51:08.021Z,1011.87
2017-06-09T21:53:10.480Z,1011.87
2017-06-09T21:55:52.772Z,1011.93
2017-06-09T21:58:36.829Z,1012.00
2017-06-09T22:01:19.943Z,1012.02
2017-06-09T22:03:25.002Z,1012.04
2017-06-09T22:05:27.453Z,1012.02
2017-06-09T22:07:29.328Z,1012.03
2017-06-09T22:09:31.153Z,1012.01
2017-06-09T22:11:32.978Z,1012.00
2017-06-09T22:13:34.711Z,1012.02
2017-06-09T22:15:37.415Z,1012.05
2017-06-09T22:17:39.572Z,1012.02
2017-06-09T22:19:41.366Z,1012.06
2017-06-09T22:21:43.224Z,1012.08
2017-06-09T22:23:45.705Z,1012.02
2017-06-09T22:25:47.512Z,1012.02
2017-06-09T22:27:49.268Z,1012.02
2017-06-09T22:29:54.554Z,1012.04
2017-06-09T22:31:56.937Z,1012.02
2017-06-09T22:33:58.784Z,1012.02
2017-06-09T22:36:00.606Z,1012.04
2017-06-09T22:38:02.423Z,1012.06
2017-06-09T22:40:05.584Z,1012.05
2017-06-09T22:42:07.386Z,1012.03
2017-06-09T22:44:09.875Z,1012.06
2017-06-09T22:46:11.736Z,1012.05
2017-06-09T22:48:14.046Z,1012.02
2017-06-09T22:50:17.821Z,1012.02
2017-06-09T22:52:20.635Z,1012.02
2017-06-09T22:54:22.430Z,1012.05
2017-06-09T22:56:25.750Z,1012.04
2017-06-09T22:58:28.289Z,1012.08
2017-06-09T23:00:30.665Z,1012.11
2017-06-09T23:02:32.518Z,1012.10
2017-06-09T23:04:34.468Z,1012.10
2017-06-09T23:06:37.687Z,1012.07
2017-06-09T23:09:21.916Z,1012.09
2017-06-09T23:12:05.279Z,1012.11
